createdAt,value
2022-12-29T11:17:36.001Z,175
2022-12-29T11:18:34.231Z,215
2022-12-29T11:19:41.423Z,205
2022-12-29T11:20:34.031Z,200
2022-12-29T11:21:34.526Z,185
2022-12-29T11:22:34.257Z,170
2022-12-29T11:23:35.454Z,180
2022-12-29T11:24:34.582Z,205
2022-12-29T11:25:35.866Z,185
2022-12-29T11:26:42.208Z,190
2022-12-29T11:27:35.740Z,200
2022-12-29T11:28:34.345Z,185
2022-12-29T11:29:34.940Z,185
2022-12-29T11:30:34.270Z,175
2022-12-29T11:31:35.098Z,170
2022-12-29T11:32:38.512Z,155
2022-12-29T11:33:34.950Z,140
2022-12-29T11:34:34.405Z,135
2022-12-29T11:35:35.991Z,130
2022-12-29T11:36:34.615Z,135
2022-12-29T11:37:36.111Z,135
2022-12-29T11:38:34.814Z,135
2022-12-29T11:39:35.229Z,135
2022-12-29T11:40:34.402Z,130
2022-12-29T11:41:35.264Z,135
2022-12-29T11:42:34.347Z,145
2022-12-29T11:43:36.251Z,160
2022-12-29T11:44:34.797Z,175
2022-12-29T11:45:34.243Z,200
2022-12-29T11:46:35.155Z,210
2022-12-29T11:47:36.328Z,190
2022-12-29T11:48:34.912Z,180
2022-12-29T11:49:34.837Z,165
2022-12-29T11:50:34.925Z,160
2022-12-29T11:51:36.393Z,165
2022-12-29T11:52:34.669Z,165
2022-12-29T11:53:36.240Z,170
2022-12-29T11:54:34.600Z,175
2022-12-29T11:55:34.663Z,180
2022-12-29T11:56:42.789Z,175
2022-12-29T11:57:34.666Z,170
2022-12-29T11:58:34.528Z,170
2022-12-29T11:59:34.809Z,165
2022-12-29T12:00:34.274Z,155
2022-12-29T12:01:35.235Z,150
2022-12-29T12:02:42.700Z,155
2022-12-29T12:03:35.381Z,145
2022-12-29T12:04:35.511Z,155
2022-12-29T12:05:35.101Z,190
2022-12-29T12:06:34.577Z,220
2022-12-29T12:07:34.477Z,245
2022-12-29T12:08:34.734Z,245
2022-12-29T12:09:35.182Z,190
2022-12-29T12:10:34.589Z,190
2022-12-29T12:11:35.307Z,195
2022-12-29T12:12:34.001Z,210
2022-12-29T12:13:34.951Z,220
2022-12-29T12:14:35.027Z,200
2022-12-29T12:15:36.999Z,225
2022-12-29T12:16:34.864Z,215
2022-12-29T12:17:35.299Z,190
2022-12-29T12:18:35.218Z,220
2022-12-29T12:19:36.297Z,220
2022-12-29T12:20:34.938Z,225
2022-12-29T12:21:38.072Z,220
2022-12-29T12:22:34.734Z,210
2022-12-29T12:23:37.624Z,225
2022-12-29T12:24:35.394Z,190
2022-12-29T12:25:36.731Z,210
2022-12-29T12:26:34.824Z,225
2022-12-29T12:27:35.776Z,215
2022-12-29T12:28:42.402Z,215
2022-12-29T12:29:36.708Z,210
2022-12-29T12:30:35.363Z,220
2022-12-29T12:31:36.185Z,245
2022-12-29T12:32:34.676Z,195
2022-12-29T12:33:36.445Z,295
2022-12-29T12:34:35.085Z,285
2022-12-29T12:35:38.088Z,300
2022-12-29T12:36:35.555Z,310
2022-12-29T12:37:35.561Z,250
2022-12-29T12:38:34.826Z,185
2022-12-29T12:39:36.716Z,180
2022-12-29T12:40:36.460Z,180
2022-12-29T12:41:35.989Z,180
2022-12-29T12:42:35.210Z,175
2022-12-29T12:43:36.658Z,170
2022-12-29T12:44:34.960Z,165
2022-12-29T12:45:34.775Z,165
2022-12-29T12:46:35.446Z,175
2022-12-29T12:47:36.357Z,175
2022-12-29T12:48:34.950Z,170
2022-12-29T12:49:35.367Z,170
2022-12-29T12:50:35.896Z,170
2022-12-29T12:51:34.797Z,165
2022-12-29T12:52:35.521Z,155
2022-12-29T12:53:35.551Z,155
2022-12-29T12:54:35.517Z,165
2022-12-29T12:55:35.268Z,160
2022-12-29T12:56:35.441Z,160
2022-12-29T12:57:35.511Z,165
2022-12-29T12:58:35.362Z,175
2022-12-29T12:59:35.637Z,165
2022-12-29T13:00:35.271Z,160
2022-12-29T13:01:36.599Z,160
2022-12-29T13:02:37.301Z,155
2022-12-29T13:03:35.559Z,150
2022-12-29T13:04:35.531Z,140
2022-12-29T13:05:37.511Z,125
2022-12-29T13:06:35.448Z,120
2022-12-29T13:07:35.835Z,130
2022-12-29T13:08:35.672Z,260
2022-12-29T13:09:35.632Z,345
2022-12-29T13:10:35.732Z,260
2022-12-29T13:11:35.725Z,210
2022-12-29T13:12:35.785Z,185
2022-12-29T13:13:36.116Z,165
2022-12-29T13:14:35.654Z,155
2022-12-29T13:15:36.735Z,160
2022-12-29T13:16:35.809Z,165
2022-12-29T13:17:35.876Z,160
2022-12-29T13:18:35.891Z,160
2022-12-29T13:19:35.849Z,155
2022-12-29T13:20:35.860Z,150
2022-12-29T13:21:35.475Z,140
2022-12-29T13:22:36.036Z,130
2022-12-29T13:23:35.839Z,125
2022-12-29T13:24:35.978Z,115
2022-12-29T13:25:36.167Z,110
2022-12-29T13:26:36.117Z,100
2022-12-29T13:27:44.933Z,85
2022-12-29T13:28:35.606Z,75
2022-12-29T13:29:36.372Z,70
2022-12-29T13:30:35.978Z,70
2022-12-29T13:31:36.476Z,75
2022-12-29T13:32:36.275Z,90
2022-12-29T13:33:35.984Z,110
2022-12-29T13:34:35.906Z,120
2022-12-29T13:35:35.813Z,105
2022-12-29T13:36:36.251Z,115
2022-12-29T13:37:36.861Z,125
2022-12-29T13:38:35.879Z,125
2022-12-29T13:39:36.177Z,115
2022-12-29T13:40:36.108Z,120
2022-12-29T13:41:36.085Z,115
2022-12-29T13:42:36.501Z,110
2022-12-29T13:43:36.401Z,110
2022-12-29T13:44:42.466Z,115
2022-12-29T13:45:35.858Z,115
2022-12-29T13:46:36.162Z,110
2022-12-29T13:47:36.471Z,110
2022-12-29T13:48:36.591Z,110
2022-12-29T13:49:36.667Z,100
2022-12-29T13:50:37.165Z,105
2022-12-29T13:51:38.161Z,105
2022-12-29T13:52:35.972Z,95
2022-12-29T13:53:35.898Z,95
2022-12-29T13:54:36.175Z,85
2022-12-29T13:55:36.222Z,85
2022-12-29T13:56:36.200Z,85
2022-12-29T13:57:37.590Z,85
2022-12-29T13:58:36.164Z,80
2022-12-29T13:59:36.403Z,75
2022-12-29T14:00:35.919Z,75
2022-12-29T14:01:36.410Z,75
2022-12-29T14:02:37.625Z,75
2022-12-29T14:03:41.602Z,75
2022-12-29T14:04:36.104Z,70
2022-12-29T14:05:36.425Z,65
2022-12-29T14:06:36.204Z,65
2022-12-29T14:07:36.319Z,60
2022-12-29T14:08:36.277Z,65
2022-12-29T14:09:43.225Z,65
2022-12-29T14:10:38.507Z,65
2022-12-29T14:11:36.530Z,55
2022-12-29T14:12:37.955Z,50
2022-12-29T14:13:37.746Z,50
2022-12-29T14:14:38.323Z,50
2022-12-29T14:15:36.772Z,45
2022-12-29T14:16:36.602Z,50
2022-12-29T14:17:35.977Z,50
2022-12-29T14:18:37.057Z,45
2022-12-29T14:19:36.083Z,45
2022-12-29T14:20:36.486Z,50
2022-12-29T14:21:36.392Z,50
2022-12-29T14:22:42.402Z,55
2022-12-29T14:23:36.381Z,50
2022-12-29T14:24:36.860Z,50
2022-12-29T14:25:37.142Z,55
2022-12-29T14:26:36.682Z,50
2022-12-29T14:27:36.474Z,50
2022-12-29T14:28:36.330Z,50
2022-12-29T14:29:36.600Z,50
2022-12-29T14:30:37.206Z,50
2022-12-29T14:31:37.895Z,50
2022-12-29T14:32:36.676Z,50
2022-12-29T14:33:36.665Z,50
2022-12-29T14:34:36.998Z,50
2022-12-29T14:35:36.834Z,45
2022-12-29T14:36:37.736Z,45
2022-12-29T14:37:39.436Z,45
2022-12-29T14:38:36.788Z,40
2022-12-29T14:39:37.265Z,40
2022-12-29T14:40:36.458Z,35
2022-12-29T14:41:36.825Z,30
2022-12-29T14:42:37.630Z,30
2022-12-29T14:43:36.745Z,25
2022-12-29T14:44:37.128Z,25
2022-12-29T14:45:36.646Z,25
2022-12-29T14:46:44.505Z,20
2022-12-29T14:47:36.744Z,20
2022-12-29T14:48:36.875Z,20
2022-12-29T14:49:36.459Z,15
2022-12-29T14:50:36.639Z,15
2022-12-29T14:51:36.758Z,15
2022-12-29T14:52:37.196Z,20
2022-12-29T14:53:37.208Z,20
2022-12-29T14:54:38.009Z,15
2022-12-29T14:55:36.533Z,15
2022-12-29T14:56:36.527Z,15
2022-12-29T14:57:36.835Z,15
2022-12-29T14:58:36.547Z,10
2022-12-29T14:59:37.232Z,10
2022-12-29T15:00:37.238Z,10
2022-12-29T15:01:37.875Z,10
2022-12-29T15:02:38.091Z,10
2022-12-29T15:03:36.507Z,5
2022-12-29T15:04:37.484Z,5
2022-12-29T15:05:36.712Z,5
2022-12-29T15:06:37.371Z,5
2022-12-29T15:07:36.814Z,5
2022-12-29T15:08:36.965Z,5
2022-12-29T15:09:39.041Z,0
2022-12-29T15:10:38.420Z,0
2022-12-29T15:11:36.573Z,5
2022-12-29T15:12:36.976Z,0
2022-12-29T15:13:36.739Z,0
2022-12-29T15:14:37.069Z,0
2022-12-29T15:15:36.901Z,0
2022-12-29T15:16:37.277Z,0
2022-12-29T15:17:36.533Z,0
2022-12-29T15:18:36.987Z,0
2022-12-29T15:19:38.007Z,0
2022-12-29T15:20:37.105Z,0
2022-12-29T15:21:37.322Z,0
2022-12-29T15:22:38.322Z,0
2022-12-29T15:23:36.880Z,0
2022-12-29T15:24:47.003Z,0
2022-12-29T15:25:37.485Z,0
2022-12-29T15:26:36.891Z,0
2022-12-29T15:27:37.021Z,0
2022-12-29T15:28:37.753Z,0
2022-12-29T15:29:36.679Z,0
2022-12-29T15:30:37.051Z,0
2022-12-29T15:31:40.937Z,0
2022-12-29T15:32:37.725Z,0
2022-12-29T15:33:37.793Z,0
2022-12-29T15:34:37.692Z,0
2022-12-29T15:35:37.116Z,0
2022-12-29T15:36:36.949Z,0
2022-12-29T15:37:36.817Z,0
2022-12-29T15:38:48.909Z,0
2022-12-29T15:39:36.984Z,0
2022-12-29T15:40:37.244Z,0
2022-12-29T15:41:37.934Z,0
2022-12-29T15:42:36.763Z,0
2022-12-29T15:43:46.673Z,0
2022-12-29T15:44:37.023Z,0
2022-12-29T15:45:37.927Z,0
2022-12-29T15:46:37.297Z,0
2022-12-29T15:47:37.513Z,0
2022-12-29T15:48:37.372Z,0
2022-12-29T15:49:42.258Z,0
2022-12-29T15:50:37.308Z,0
2022-12-29T15:51:37.772Z,0
2022-12-29T15:52:38.793Z,0
2022-12-29T15:53:38.609Z,0
2022-12-29T15:54:37.128Z,0
2022-12-29T15:55:37.863Z,0
2022-12-29T15:56:38.174Z,0
2022-12-29T15:57:37.380Z,0
2022-12-29T15:58:37.581Z,0
2022-12-29T15:59:37.228Z,0
2022-12-29T16:00:38.095Z,0
2022-12-29T16:01:38.162Z,0
2022-12-29T16:02:39.136Z,0
2022-12-29T16:03:37.822Z,0
2022-12-29T16:05:23.335Z,0
2022-12-29T16:05:38.065Z,0
2022-12-29T16:06:37.553Z,0
2022-12-29T16:07:46.736Z,0
2022-12-29T16:08:37.287Z,0
2022-12-29T16:09:37.221Z,0
2022-12-29T16:10:37.940Z,0
2022-12-29T16:11:37.632Z,0
2022-12-29T16:12:37.920Z,0
2022-12-29T16:13:45.535Z,0
2022-12-29T16:14:37.754Z,0
2022-12-29T16:15:37.293Z,0
2022-12-29T16:16:37.655Z,0
2022-12-29T16:17:37.177Z,0
2022-12-29T16:18:37.599Z,0
2022-12-29T16:19:37.992Z,0
2022-12-29T16:20:38.904Z,0
2022-12-29T16:21:37.651Z,0
2022-12-29T16:22:38.117Z,0
2022-12-29T16:23:37.604Z,0
2022-12-29T16:24:38.024Z,0
2022-12-29T16:25:37.401Z,0
2022-12-29T16:26:37.332Z,0
2022-12-29T16:27:37.351Z,0
2022-12-29T16:28:37.012Z,0
2022-12-29T16:29:37.578Z,0
2022-12-29T16:30:43.375Z,0
2022-12-29T16:31:38.461Z,0
2022-12-29T16:32:37.651Z,0
2022-12-29T16:33:37.125Z,0
2022-12-29T16:34:37.801Z,0
2022-12-29T16:35:37.281Z,0
2022-12-29T16:36:37.887Z,0
2022-12-29T16:37:37.676Z,0
2022-12-29T16:38:37.780Z,0
2022-12-29T16:39:37.761Z,0
2022-12-29T16:40:37.614Z,0
2022-12-29T16:41:38.163Z,0
2022-12-29T16:42:37.597Z,0
2022-12-29T16:43:37.805Z,0
2022-12-29T16:44:38.097Z,0
2022-12-29T16:45:37.732Z,0
2022-12-29T16:46:39.078Z,0
2022-12-29T16:47:38.148Z,0
2022-12-29T16:48:37.778Z,0
2022-12-29T16:49:38.888Z,0
2022-12-29T16:50:38.527Z,0
2022-12-29T16:51:37.728Z,0
2022-12-29T16:52:38.308Z,0
2022-12-29T16:53:37.713Z,0
2022-12-29T16:54:38.692Z,0
2022-12-29T16:55:37.641Z,0
2022-12-29T16:56:37.910Z,0
2022-12-29T16:57:38.079Z,0
2022-12-29T16:58:37.656Z,0
2022-12-29T16:59:37.989Z,0
2022-12-29T17:00:37.939Z,0
2022-12-29T17:01:38.032Z,0
2022-12-29T17:02:38.996Z,0
2022-12-29T17:03:38.247Z,0
2022-12-29T17:04:38.142Z,0
2022-12-29T17:05:37.763Z,0
2022-12-29T17:06:37.820Z,0
2022-12-29T17:07:38.091Z,0
2022-12-29T17:08:37.792Z,0
2022-12-29T17:09:38.807Z,0
2022-12-29T17:10:37.425Z,0
2022-12-29T17:11:38.053Z,0
2022-12-29T17:12:37.737Z,0
2022-12-29T17:13:38.127Z,0
2022-12-29T17:14:38.082Z,0
2022-12-29T17:15:38.382Z,0
2022-12-29T17:16:37.658Z,0
2022-12-29T17:17:37.313Z,0
2022-12-29T17:18:37.783Z,0
2022-12-29T17:19:37.563Z,0
2022-12-29T17:20:38.131Z,0
2022-12-29T17:21:38.137Z,0
2022-12-29T17:22:37.885Z,0
2022-12-29T17:23:38.070Z,0
2022-12-29T17:24:39.291Z,0
2022-12-29T17:25:38.497Z,0
2022-12-29T17:26:38.126Z,0
2022-12-29T17:27:37.610Z,0
2022-12-29T17:28:38.537Z,0
2022-12-29T17:29:37.739Z,0
2022-12-29T17:30:43.473Z,0
2022-12-29T17:31:38.460Z,0
2022-12-29T17:32:37.634Z,0
2022-12-29T17:33:37.937Z,0
2022-12-29T17:34:37.672Z,0
2022-12-29T17:35:39.589Z,0
2022-12-29T17:36:37.931Z,0
2022-12-29T17:37:38.544Z,0
2022-12-29T17:38:38.185Z,0
2022-12-29T17:39:38.426Z,0
2022-12-29T17:40:38.597Z,0
2022-12-29T17:41:38.532Z,0
2022-12-29T17:42:37.879Z,0
2022-12-29T17:43:46.302Z,0
2022-12-29T17:44:37.530Z,0
2022-12-29T17:45:38.582Z,0
2022-12-29T17:46:38.659Z,0
2022-12-29T17:47:38.273Z,0
2022-12-29T17:48:38.304Z,0
2022-12-29T17:49:38.421Z,0
2022-12-29T17:50:38.625Z,0
2022-12-29T17:51:38.288Z,0
2022-12-29T17:52:38.254Z,0
2022-12-29T17:53:38.336Z,0
2022-12-29T17:54:38.445Z,0
2022-12-29T17:55:46.092Z,0
2022-12-29T17:56:38.072Z,0
2022-12-29T17:57:38.293Z,0
2022-12-29T17:58:38.291Z,0
2022-12-29T17:59:38.319Z,0
2022-12-29T18:00:37.899Z,0
2022-12-29T18:01:51.304Z,0
2022-12-29T18:02:39.440Z,0
2022-12-29T18:03:40.193Z,0
2022-12-29T18:04:38.522Z,0
2022-12-29T18:05:37.955Z,0
2022-12-29T18:06:38.418Z,0
2022-12-29T18:07:45.249Z,0
2022-12-29T18:08:38.431Z,0
2022-12-29T18:09:38.470Z,0
2022-12-29T18:10:39.307Z,0
2022-12-29T18:11:38.766Z,0
2022-12-29T18:12:38.373Z,0
2022-12-29T18:13:53.540Z,0
2022-12-29T18:14:38.292Z,0
2022-12-29T18:15:38.505Z,0
2022-12-29T18:16:39.757Z,0
2022-12-29T18:17:38.868Z,0
2022-12-29T18:18:39.830Z,0
2022-12-29T18:19:45.485Z,0
2022-12-29T18:20:39.232Z,0
2022-12-29T18:21:38.465Z,0
2022-12-29T18:22:38.813Z,0
2022-12-29T18:23:38.501Z,0
2022-12-29T18:24:39.102Z,0
2022-12-29T18:25:39.072Z,0
2022-12-29T18:26:39.040Z,0
2022-12-29T18:27:38.638Z,0
2022-12-29T18:28:39.612Z,0
2022-12-29T18:29:38.372Z,0
2022-12-29T18:30:38.451Z,0
2022-12-29T18:31:39.075Z,0
2022-12-29T18:32:38.609Z,0
2022-12-29T18:33:38.617Z,0
2022-12-29T18:34:38.743Z,0
2022-12-29T18:35:38.748Z,0
2022-12-29T18:36:39.516Z,0
2022-12-29T18:37:38.134Z,0
2022-12-29T18:38:40.091Z,0
2022-12-29T18:39:39.585Z,0
2022-12-29T18:40:38.068Z,0
2022-12-29T18:41:39.096Z,0
2022-12-29T18:42:37.779Z,0
2022-12-29T18:43:38.950Z,0
2022-12-29T18:44:39.057Z,0
2022-12-29T18:45:37.959Z,0
2022-12-29T18:46:38.711Z,0
2022-12-29T18:47:37.870Z,0
2022-12-29T18:48:39.273Z,0
2022-12-29T18:49:38.488Z,0
2022-12-29T18:50:39.011Z,0
2022-12-29T18:51:38.819Z,0
2022-12-29T18:52:39.103Z,0
2022-12-29T18:53:39.926Z,0
2022-12-29T18:54:40.262Z,0
2022-12-29T18:55:38.659Z,0
2022-12-29T18:56:38.403Z,0
2022-12-29T18:57:38.787Z,0
2022-12-29T18:58:43.614Z,0
2022-12-29T18:59:38.744Z,0
2022-12-29T19:00:38.985Z,0
2022-12-29T19:01:39.221Z,0
2022-12-29T19:02:39.390Z,0
2022-12-29T19:03:39.474Z,0
2022-12-29T19:04:39.592Z,0
2022-12-29T19:05:38.990Z,0
2022-12-29T19:06:38.250Z,0
2022-12-29T19:07:38.819Z,0
2022-12-29T19:08:38.781Z,0
2022-12-29T19:09:38.552Z,0
2022-12-29T19:10:39.384Z,0
2022-12-29T19:11:40.485Z,0
2022-12-29T19:12:38.861Z,0
2022-12-29T19:13:40.352Z,0
2022-12-29T19:14:39.170Z,0
2022-12-29T19:15:38.283Z,0
2022-12-29T19:16:38.550Z,0
2022-12-29T19:17:38.423Z,0
2022-12-29T19:19:14.978Z,0
2022-12-29T19:19:38.604Z,0
2022-12-29T19:20:38.609Z,0
2022-12-29T19:21:38.670Z,0
2022-12-29T19:22:38.884Z,0
2022-12-29T19:23:39.274Z,0
2022-12-29T19:24:38.881Z,0
2022-12-29T19:25:39.324Z,0
2022-12-29T19:26:39.741Z,0
2022-12-29T19:27:38.854Z,0
2022-12-29T19:28:38.974Z,0
2022-12-29T19:29:38.710Z,0
2022-12-29T19:30:39.107Z,0
2022-12-29T19:31:39.043Z,0
2022-12-29T19:32:39.498Z,0
2022-12-29T19:33:38.556Z,0
2022-12-29T19:34:39.043Z,0
2022-12-29T19:35:38.540Z,0
2022-12-29T19:36:39.210Z,0
2022-12-29T19:37:38.994Z,0
2022-12-29T19:38:38.715Z,0
2022-12-29T19:39:39.107Z,0
2022-12-29T19:40:38.462Z,0
2022-12-29T19:41:39.335Z,0
2022-12-29T19:42:38.986Z,0
2022-12-29T19:43:40.081Z,0
2022-12-29T19:44:38.985Z,0
2022-12-29T19:45:38.867Z,0
2022-12-29T19:46:39.225Z,0
2022-12-29T19:47:41.801Z,0
2022-12-29T19:48:38.760Z,0
2022-12-29T19:49:38.930Z,0
2022-12-29T19:50:39.068Z,0
2022-12-29T19:51:40.325Z,0
2022-12-29T19:52:39.058Z,0
2022-12-29T19:53:39.217Z,0
2022-12-29T19:54:39.044Z,0
2022-12-29T19:55:39.101Z,0
2022-12-29T19:56:39.840Z,0
2022-12-29T19:57:40.028Z,0
2022-12-29T19:58:42.722Z,0
2022-12-29T19:59:40.289Z,0
2022-12-29T20:00:39.754Z,0
2022-12-29T20:01:41.217Z,0
2022-12-29T20:02:40.840Z,0
2022-12-29T20:03:39.409Z,0
2022-12-29T20:04:39.108Z,0
2022-12-29T20:05:39.167Z,0
2022-12-29T20:06:38.935Z,0
2022-12-29T20:07:39.242Z,0
2022-12-29T20:08:38.911Z,0
2022-12-29T20:09:38.990Z,0
2022-12-29T20:10:39.799Z,0
2022-12-29T20:11:39.121Z,0
2022-12-29T20:12:39.563Z,0
2022-12-29T20:13:39.182Z,0
2022-12-29T20:14:39.359Z,0
2022-12-29T20:15:39.136Z,0
2022-12-29T20:17:13.852Z,0
2022-12-29T20:18:29.590Z,0
2022-12-29T20:19:39.769Z,0
2022-12-29T20:20:39.831Z,0
2022-12-29T20:21:39.916Z,0
2022-12-29T20:22:40.171Z,0
2022-12-29T20:23:40.528Z,0
2022-12-29T20:24:41.602Z,0
2022-12-29T20:25:57.105Z,0
2022-12-29T20:26:40.398Z,0
2022-12-29T20:27:39.342Z,0
2022-12-29T20:28:39.679Z,0
2022-12-29T20:29:40.138Z,0
2022-12-29T20:30:39.548Z,0
2022-12-29T20:31:40.262Z,0
2022-12-29T20:32:39.637Z,0
2022-12-29T20:33:39.664Z,0
2022-12-29T20:34:39.916Z,0
2022-12-29T20:35:39.979Z,0
2022-12-29T20:36:39.836Z,0
2022-12-29T20:37:39.973Z,0
2022-12-29T20:38:40.472Z,0
2022-12-29T20:39:39.325Z,0
2022-12-29T20:40:48.910Z,0
2022-12-29T20:41:39.676Z,0
2022-12-29T20:42:39.640Z,0
2022-12-29T20:43:40.588Z,0
2022-12-29T20:44:40.075Z,0
2022-12-29T20:45:40.176Z,0
2022-12-29T20:46:51.611Z,0
2022-12-29T20:47:39.692Z,0
2022-12-29T20:48:39.990Z,0
2022-12-29T20:49:40.158Z,0
2022-12-29T20:50:40.495Z,0
2022-12-29T20:52:14.591Z,0
2022-12-29T20:52:40.046Z,0
2022-12-29T20:53:39.655Z,0
2022-12-29T20:54:47.788Z,0
2022-12-29T20:55:43.435Z,0
2022-12-29T20:56:40.637Z,0
2022-12-29T20:59:08.406Z,0
2022-12-29T20:59:38.021Z,0
2022-12-29T21:00:35.785Z,0
2022-12-29T21:01:36.649Z,0
2022-12-29T21:02:36.550Z,0
2022-12-29T21:03:35.580Z,0
2022-12-29T21:05:26.523Z,0
2022-12-29T21:05:37.074Z,0
2022-12-29T21:06:37.223Z,0
2022-12-29T21:07:36.467Z,0
2022-12-29T21:08:36.965Z,0
2022-12-29T21:09:37.203Z,0
2022-12-29T21:10:37.017Z,0
2022-12-29T21:11:37.269Z,0
2022-12-29T21:12:36.099Z,0
2022-12-29T21:13:36.404Z,0
2022-12-29T21:14:39.581Z,0
2022-12-29T21:15:36.407Z,0
2022-12-29T21:16:37.090Z,0
2022-12-29T21:17:36.501Z,0
2022-12-29T21:18:36.791Z,0
2022-12-29T21:19:36.541Z,0
2022-12-29T21:20:36.837Z,0
2022-12-29T21:21:36.230Z,0
2022-12-29T21:22:36.959Z,0
2022-12-29T21:23:36.208Z,0
2022-12-29T21:24:36.533Z,0
2022-12-29T21:25:36.852Z,0
2022-12-29T21:26:36.912Z,0
2022-12-29T21:27:37.775Z,0
2022-12-29T21:28:37.003Z,0
2022-12-29T21:29:36.366Z,0
2022-12-29T21:30:36.854Z,0
2022-12-29T21:31:36.682Z,0
2022-12-29T21:32:36.948Z,0
2022-12-29T21:33:36.875Z,0
2022-12-29T21:34:36.760Z,0
2022-12-29T21:35:36.787Z,0
2022-12-29T21:36:37.104Z,0
2022-12-29T21:37:36.835Z,0
2022-12-29T21:38:36.882Z,0
2022-12-29T21:39:37.459Z,0
2022-12-29T21:40:36.591Z,0
2022-12-29T21:41:38.040Z,0
2022-12-29T21:42:37.164Z,0
2022-12-29T21:43:36.598Z,0
2022-12-29T21:44:36.400Z,0
2022-12-29T21:45:36.903Z,0
2022-12-29T21:46:37.134Z,0
2022-12-29T21:47:37.390Z,0
2022-12-29T21:48:36.599Z,0
2022-12-29T21:49:36.458Z,0
2022-12-29T21:50:36.764Z,0
2022-12-29T21:51:40.564Z,0
2022-12-29T21:52:37.520Z,0
2022-12-29T21:53:37.122Z,0
2022-12-29T21:54:36.871Z,0
2022-12-29T21:55:36.877Z,0
2022-12-29T21:56:36.395Z,0
2022-12-29T21:57:37.009Z,0
2022-12-29T21:58:36.960Z,0
2022-12-29T21:59:36.252Z,0
2022-12-29T22:00:36.908Z,0
2022-12-29T22:01:38.278Z,0
2022-12-29T22:02:38.133Z,0
2022-12-29T22:03:38.141Z,0
2022-12-29T22:04:37.028Z,0
2022-12-29T22:05:36.701Z,0
2022-12-29T22:06:37.651Z,0
2022-12-29T22:07:37.403Z,0
2022-12-29T22:08:37.049Z,0
2022-12-29T22:09:43.885Z,0
2022-12-29T22:10:37.008Z,0
2022-12-29T22:11:36.982Z,0
2022-12-29T22:12:36.803Z,0
2022-12-29T22:13:36.797Z,0
2022-12-29T22:14:36.571Z,0
2022-12-29T22:15:37.771Z,0
2022-12-29T22:16:37.935Z,0
2022-12-29T22:17:51.770Z,0
2022-12-29T22:18:36.962Z,0
2022-12-29T22:19:36.623Z,0
2022-12-29T22:20:37.329Z,0
2022-12-29T22:21:36.594Z,0
2022-12-29T22:22:37.119Z,0
2022-12-29T22:23:36.935Z,0
2022-12-29T22:24:37.208Z,0
2022-12-29T22:25:37.305Z,0
2022-12-29T22:26:37.365Z,0
2022-12-29T22:27:36.923Z,0
2022-12-29T22:28:37.413Z,0
2022-12-29T22:29:37.171Z,0
2022-12-29T22:30:37.635Z,0
2022-12-29T22:31:38.886Z,0
2022-12-29T22:32:37.276Z,0
2022-12-29T22:33:37.035Z,0
2022-12-29T22:34:36.991Z,0
2022-12-29T22:35:37.208Z,0
2022-12-29T22:36:36.971Z,0
2022-12-29T22:37:37.379Z,0
2022-12-29T22:38:37.202Z,0
2022-12-29T22:39:37.884Z,0
2022-12-29T22:40:37.584Z,0
2022-12-29T22:41:38.242Z,0
2022-12-29T22:42:37.645Z,0
2022-12-29T22:43:37.334Z,0
2022-12-29T22:44:37.034Z,0
2022-12-29T22:45:37.437Z,0
2022-12-29T22:46:37.776Z,0
2022-12-29T22:47:37.058Z,0
2022-12-29T22:48:37.292Z,0
2022-12-29T22:49:37.324Z,0
2022-12-29T22:50:36.981Z,0
2022-12-29T22:51:37.301Z,0
2022-12-29T22:52:37.240Z,0
2022-12-29T22:53:37.121Z,0
2022-12-29T22:54:37.429Z,0
2022-12-29T22:55:37.094Z,0
2022-12-29T22:56:37.596Z,0
2022-12-29T22:57:37.255Z,0
2022-12-29T22:58:38.149Z,0
2022-12-29T22:59:37.837Z,0
2022-12-29T23:00:37.051Z,0
2022-12-29T23:01:37.880Z,0
2022-12-29T23:02:39.081Z,0
2022-12-29T23:03:37.403Z,0
2022-12-29T23:05:11.915Z,0
2022-12-29T23:05:37.193Z,0
2022-12-29T23:06:36.726Z,0
2022-12-29T23:07:37.028Z,0
2022-12-29T23:08:37.035Z,0
2022-12-29T23:09:37.149Z,0
2022-12-29T23:10:37.616Z,0
2022-12-29T23:11:37.796Z,0
2022-12-29T23:12:37.147Z,0
2022-12-29T23:13:38.958Z,0
2022-12-29T23:14:36.978Z,0
2022-12-29T23:15:38.700Z,0
2022-12-29T23:16:37.513Z,0
2022-12-29T23:17:37.702Z,0
2022-12-29T23:18:37.453Z,0
2022-12-29T23:19:37.297Z,0
2022-12-29T23:20:37.226Z,0
2022-12-29T23:21:37.261Z,0
2022-12-29T23:22:37.885Z,0
2022-12-29T23:23:39.607Z,0
2022-12-29T23:24:37.839Z,0
2022-12-29T23:25:38.649Z,0
2022-12-29T23:26:38.017Z,0
2022-12-29T23:27:38.635Z,0
2022-12-29T23:28:37.604Z,0
2022-12-29T23:29:38.144Z,0
2022-12-29T23:30:37.139Z,0
2022-12-29T23:31:38.018Z,0
2022-12-29T23:32:37.513Z,0
2022-12-29T23:33:37.556Z,0
2022-12-29T23:34:37.615Z,0
2022-12-29T23:35:38.129Z,0
2022-12-29T23:36:37.620Z,0
2022-12-29T23:37:38.268Z,0
2022-12-29T23:38:37.349Z,0
2022-12-29T23:39:37.993Z,0
2022-12-29T23:40:37.481Z,0
2022-12-29T23:41:38.411Z,0
2022-12-29T23:42:37.916Z,0
2022-12-29T23:43:39.246Z,0
2022-12-29T23:44:38.010Z,0
2022-12-29T23:45:37.658Z,0
2022-12-29T23:46:38.284Z,0
2022-12-29T23:47:38.209Z,0
2022-12-29T23:48:37.900Z,0
2022-12-29T23:49:38.244Z,0
2022-12-29T23:50:37.523Z,0
2022-12-29T23:51:37.697Z,0
2022-12-29T23:52:37.977Z,0
2022-12-29T23:53:38.227Z,0
2022-12-29T23:54:37.193Z,0
2022-12-29T23:55:38.370Z,0
2022-12-29T23:56:37.238Z,0
2022-12-29T23:57:38.332Z,0
2022-12-29T23:58:38.019Z,0
2022-12-29T23:59:37.931Z,0
